Time,TemperatureF,DewpointF,PressureIn,WindDirection,WindDirectionDegrees,WindSpeedMPH,WindSpeedGustMPH,Humidity,HourlyPrecipIn,Conditions,Clouds,dailyrainin,SolarRadiationWatts/m^2,SoftwareType,DateUTC
2013-03-29 00:02:00,20.0,18.0,-100.00,ESE,118,35.0,57.0,92,0.00,,,-99.99,0.700000,,2013-03-29 08:02:00,
2013-03-29 00:12:00,20.0,18.0,-100.00,ESE,118,35.0,57.0,92,0.00,,,-99.99,0.700000,,2013-03-29 08:12:00,
2013-03-29 00:22:00,20.0,18.0,-100.00,ESE,118,35.0,57.0,92,0.00,,,-99.99,0.700000,,2013-03-29 08:22:00,
2013-03-29 00:32:00,20.0,18.0,-100.00,ESE,118,35.0,57.0,92,0.00,,,-99.99,0.700000,,2013-03-29 08:32:00,
2013-03-29 00:42:00,20.0,18.0,-100.00,ESE,118,35.0,57.0,92,0.00,,,-99.99,0.700000,,2013-03-29 08:42:00,
2013-03-29 01:02:00,20.0,18.0,-100.00,ESE,119,37.0,47.0,93,0.00,,,-99.99,0.600000,,2013-03-29 09:02:00,
2013-03-29 01:12:00,20.0,18.0,-100.00,ESE,119,37.0,47.0,93,0.00,,,-99.99,0.600000,,2013-03-29 09:12:00,
2013-03-29 01:22:00,20.0,18.0,-100.00,ESE,119,37.0,47.0,93,0.00,,,-99.99,0.600000,,2013-03-29 09:22:00,
2013-03-29 01:32:00,20.0,18.0,-100.00,ESE,119,37.0,47.0,93,0.00,,,-99.99,0.600000,,2013-03-29 09:32:00,
2013-03-29 01:42:00,20.0,18.0,-100.00,ESE,119,37.0,47.0,93,0.00,,,-99.99,0.600000,,2013-03-29 09:42:00,
2013-03-29 02:02:00,20.0,18.0,-100.00,ESE,114,42.0,55.0,93,0.00,,,-99.99,0.700000,,2013-03-29 10:02:00,
2013-03-29 02:12:00,20.0,18.0,-100.00,ESE,114,42.0,55.0,93,0.00,,,-99.99,0.700000,,2013-03-29 10:12:00,
2013-03-29 02:22:00,20.0,18.0,-100.00,ESE,114,42.0,55.0,93,0.00,,,-99.99,0.700000,,2013-03-29 10:22:00,
2013-03-29 02:33:00,20.0,18.0,-100.00,ESE,114,42.0,55.0,93,0.00,,,-99.99,0.700000,,2013-03-29 10:33:00,
2013-03-29 02:42:00,20.0,18.0,-100.00,ESE,114,42.0,55.0,93,0.00,,,-99.99,0.700000,,2013-03-29 10:42:00,
2013-03-29 03:03:00,20.0,18.0,-100.00,ESE,115,45.0,65.0,93,0.00,,,-99.99,0.700000,,2013-03-29 11:03:00,
2013-03-29 03:12:00,20.0,18.0,-100.00,ESE,115,45.0,65.0,93,0.00,,,-99.99,0.700000,,2013-03-29 11:12:00,
2013-03-29 03:23:00,20.0,18.0,-100.00,ESE,115,45.0,65.0,93,0.00,,,-99.99,0.700000,,2013-03-29 11:23:00,
2013-03-29 03:42:00,20.0,18.0,-100.00,ESE,115,45.0,65.0,93,0.00,,,-99.99,0.700000,,2013-03-29 11:42:00,
2013-03-29 04:02:00,20.0,19.0,-100.00,ESE,114,45.0,65.0,93,0.00,,,-99.99,0.700000,,2013-03-29 12:02:00,
2013-03-29 04:12:00,20.0,19.0,-100.00,ESE,114,45.0,65.0,93,0.00,,,-99.99,0.700000,,2013-03-29 12:12:00,
2013-03-29 04:22:00,20.0,19.0,-100.00,ESE,114,45.0,65.0,93,0.00,,,-99.99,0.700000,,2013-03-29 12:22:00,
2013-03-29 04:32:00,20.0,19.0,-100.00,ESE,114,45.0,65.0,93,0.00,,,-99.99,0.700000,,2013-03-29 12:32:00,
2013-03-29 04:42:00,20.0,19.0,-100.00,ESE,114,45.0,65.0,93,0.00,,,-99.99,0.700000,,2013-03-29 12:42:00,
2013-03-29 05:02:00,21.0,19.0,-100.00,ESE,114,46.0,72.0,93,0.00,,,-99.99,0.700000,,2013-03-29 13:02:00,
2013-03-29 05:12:00,21.0,19.0,-100.00,ESE,114,46.0,72.0,93,0.00,,,-99.99,0.700000,,2013-03-29 13:12:00,
2013-03-29 05:22:00,21.0,19.0,-100.00,ESE,114,46.0,72.0,93,0.00,,,-99.99,0.700000,,2013-03-29 13:22:00,
2013-03-29 05:32:00,21.0,19.0,-100.00,ESE,114,46.0,72.0,93,0.00,,,-99.99,0.700000,,2013-03-29 13:32:00,
2013-03-29 05:42:00,21.0,19.0,-100.00,ESE,114,46.0,72.0,93,0.00,,,-99.99,0.700000,,2013-03-29 13:42:00,
2013-03-29 06:02:00,21.0,19.0,-100.00,ESE,113,44.0,63.0,93,0.00,,,-99.99,0.700000,,2013-03-29 14:02:00,
2013-03-29 06:12:00,21.0,19.0,-100.00,ESE,113,44.0,63.0,93,0.00,,,-99.99,0.700000,,2013-03-29 14:12:00,
2013-03-29 06:22:00,21.0,19.0,-100.00,ESE,113,44.0,63.0,93,0.00,,,-99.99,0.700000,,2013-03-29 14:22:00,
2013-03-29 06:32:00,21.0,19.0,-100.00,ESE,113,44.0,63.0,93,0.00,,,-99.99,0.700000,,2013-03-29 14:32:00,
2013-03-29 06:42:00,21.0,19.0,-100.00,ESE,113,44.0,63.0,93,0.00,,,-99.99,0.700000,,2013-03-29 14:42:00,
2013-03-29 07:02:00,21.0,20.0,-100.00,ESE,114,51.0,61.0,93,0.00,,,-99.99,0.600000,,2013-03-29 15:02:00,
2013-03-29 07:12:00,21.0,20.0,-100.00,ESE,114,51.0,61.0,93,0.00,,,-99.99,0.600000,,2013-03-29 15:12:00,
2013-03-29 07:22:00,21.0,20.0,-100.00,ESE,114,51.0,61.0,93,0.00,,,-99.99,0.600000,,2013-03-29 15:22:00,
2013-03-29 07:33:00,21.0,20.0,-100.00,ESE,114,51.0,61.0,93,0.00,,,-99.99,0.600000,,2013-03-29 15:33:00,
2013-03-29 07:42:00,21.0,20.0,-100.00,ESE,114,51.0,61.0,93,0.00,,,-99.99,0.600000,,2013-03-29 15:42:00,
2013-03-29 08:03:00,21.0,19.0,-100.00,ESE,115,45.0,67.0,92,0.00,,,-99.99,1.500000,,2013-03-29 16:03:00,
2013-03-29 08:12:00,21.0,19.0,-100.00,ESE,115,45.0,67.0,92,0.00,,,-99.99,1.500000,,2013-03-29 16:12:00,
2013-03-29 08:23:00,21.0,19.0,-100.00,ESE,115,45.0,67.0,92,0.00,,,-99.99,1.500000,,2013-03-29 16:23:00,
2013-03-29 08:32:00,21.0,19.0,-100.00,ESE,115,45.0,67.0,92,0.00,,,-99.99,1.500000,,2013-03-29 16:32:00,
2013-03-29 08:41:00,21.0,19.0,-100.00,ESE,115,45.0,67.0,92,0.00,,,-99.99,1.500000,,2013-03-29 16:41:00,
2013-03-29 09:03:00,22.0,20.0,-100.00,ESE,112,35.0,67.0,91,0.00,,,-99.99,20.900000,,2013-03-29 17:03:00,
2013-03-29 09:12:00,22.0,20.0,-100.00,ESE,112,35.0,67.0,91,0.00,,,-99.99,20.900000,,2013-03-29 17:12:00,
2013-03-29 09:22:00,22.0,20.0,-100.00,ESE,112,35.0,67.0,91,0.00,,,-99.99,20.900000,,2013-03-29 17:22:00,
2013-03-29 09:33:00,22.0,20.0,-100.00,ESE,112,35.0,67.0,91,0.00,,,-99.99,20.900000,,2013-03-29 17:33:00,
2013-03-29 09:42:00,22.0,20.0,-100.00,ESE,112,35.0,67.0,91,0.00,,,-99.99,20.900000,,2013-03-29 17:42:00,
2013-03-29 10:02:00,22.0,20.0,-100.00,ESE,111,31.0,54.0,90,0.00,,,-99.99,80.800003,,2013-03-29 18:02:00,
2013-03-29 10:12:00,22.0,20.0,-100.00,ESE,111,31.0,54.0,90,0.00,,,-99.99,80.800003,,2013-03-29 18:12:00,
2013-03-29 10:22:00,22.0,20.0,-100.00,ESE,111,31.0,54.0,90,0.00,,,-99.99,80.800003,,2013-03-29 18:22:00,
2013-03-29 10:32:00,22.0,20.0,-100.00,ESE,111,31.0,54.0,90,0.00,,,-99.99,80.800003,,2013-03-29 18:32:00,
2013-03-29 10:42:00,22.0,20.0,-100.00,ESE,111,31.0,54.0,90,0.00,,,-99.99,80.800003,,2013-03-29 18:42:00,
2013-03-29 11:02:00,22.0,19.0,-100.00,East,101,23.0,54.0,89,0.00,,,0.00,150.699997,,2013-03-29 19:02:00,
2013-03-29 11:12:00,22.0,19.0,-100.00,East,101,23.0,54.0,89,0.00,,,0.00,150.699997,,2013-03-29 19:12:00,
2013-03-29 11:22:00,22.0,19.0,-100.00,East,101,23.0,54.0,89,0.00,,,0.00,150.699997,,2013-03-29 19:22:00,
2013-03-29 11:32:00,22.0,19.0,-100.00,East,101,23.0,54.0,89,0.00,,,0.00,150.699997,,2013-03-29 19:32:00,
2013-03-29 11:42:00,22.0,19.0,-100.00,East,101,23.0,54.0,89,0.00,,,0.00,150.699997,,2013-03-29 19:42:00,
2013-03-29 12:02:00,21.0,18.0,-100.00,East,97,22.0,35.0,88,0.00,,,0.00,226.800003,,2013-03-29 20:02:00,
2013-03-29 12:12:00,21.0,18.0,-100.00,East,97,22.0,35.0,88,0.00,,,0.00,226.800003,,2013-03-29 20:12:00,
2013-03-29 12:22:00,21.0,18.0,-100.00,East,97,22.0,35.0,88,0.00,,,0.00,226.800003,,2013-03-29 20:22:00,
2013-03-29 12:32:00,21.0,18.0,-100.00,East,97,22.0,35.0,88,0.00,,,0.00,226.800003,,2013-03-29 20:32:00,
2013-03-29 12:42:00,21.0,18.0,-100.00,East,97,22.0,35.0,88,0.00,,,0.00,226.800003,,2013-03-29 20:42:00,
2013-03-29 13:02:00,21.0,18.0,-100.00,East,97,23.0,27.0,88,0.00,,,0.00,278.200012,,2013-03-29 21:02:00,
2013-03-29 13:12:00,21.0,18.0,-100.00,East,97,23.0,27.0,88,0.00,,,0.00,278.200012,,2013-03-29 21:12:00,
2013-03-29 13:22:00,21.0,18.0,-100.00,East,97,23.0,27.0,88,0.00,,,0.00,278.200012,,2013-03-29 21:22:00,
2013-03-29 13:32:00,21.0,18.0,-100.00,East,97,23.0,27.0,88,0.00,,,0.00,278.200012,,2013-03-29 21:32:00,
2013-03-29 13:42:00,21.0,18.0,-100.00,East,97,23.0,27.0,88,0.00,,,0.00,278.200012,,2013-03-29 21:42:00,
2013-03-29 14:03:00,22.0,19.0,-100.00,East,97,24.0,27.0,87,0.00,,,0.00,394.899994,,2013-03-29 22:03:00,
2013-03-29 14:12:00,22.0,19.0,-100.00,East,97,24.0,27.0,87,0.00,,,0.00,394.899994,,2013-03-29 22:12:00,
2013-03-29 14:22:00,22.0,19.0,-100.00,East,97,24.0,27.0,87,0.00,,,0.00,394.899994,,2013-03-29 22:22:00,
2013-03-29 14:33:00,22.0,19.0,-100.00,East,97,24.0,27.0,87,0.00,,,0.00,394.899994,,2013-03-29 22:33:00,
2013-03-29 14:42:00,22.0,19.0,-100.00,East,97,24.0,27.0,87,0.00,,,0.00,394.899994,,2013-03-29 22:42:00,
2013-03-29 15:02:00,22.0,19.0,-100.00,East,100,22.0,28.0,87,0.00,,,0.00,467.899994,,2013-03-29 23:02:00,
2013-03-29 15:12:00,22.0,19.0,-100.00,East,100,22.0,28.0,87,0.00,,,0.00,467.899994,,2013-03-29 23:12:00,
2013-03-29 15:22:00,22.0,19.0,-100.00,East,100,22.0,28.0,87,0.00,,,0.00,467.899994,,2013-03-29 23:22:00,
2013-03-29 15:32:00,22.0,19.0,-100.00,East,100,22.0,28.0,87,0.00,,,0.00,467.899994,,2013-03-29 23:32:00,
2013-03-29 15:42:00,22.0,19.0,-100.00,East,100,22.0,28.0,87,0.00,,,0.00,467.899994,,2013-03-29 23:42:00,
2013-03-29 16:03:00,23.0,20.0,-100.00,East,84,13.0,26.0,87,0.00,,,0.00,437.000000,,2013-03-30 00:03:00,
2013-03-29 16:12:00,23.0,20.0,-100.00,East,84,13.0,26.0,87,0.00,,,0.00,437.000000,,2013-03-30 00:12:00,
2013-03-29 16:22:00,23.0,20.0,-100.00,East,84,13.0,26.0,87,0.00,,,0.00,437.000000,,2013-03-30 00:22:00,
2013-03-29 16:32:00,23.0,20.0,-100.00,East,84,13.0,26.0,87,0.00,,,0.00,437.000000,,2013-03-30 00:32:00,
2013-03-29 16:42:00,23.0,20.0,-100.00,East,84,13.0,26.0,87,0.00,,,0.00,437.000000,,2013-03-30 00:42:00,
2013-03-29 17:02:00,22.0,19.0,-100.00,East,86,16.0,22.0,88,0.00,,,0.00,401.799988,,2013-03-30 01:02:00,
2013-03-29 17:12:00,22.0,19.0,-100.00,East,86,16.0,22.0,88,0.00,,,0.00,401.799988,,2013-03-30 01:12:00,
2013-03-29 17:22:00,22.0,19.0,-100.00,East,86,16.0,22.0,88,0.00,,,0.00,401.799988,,2013-03-30 01:22:00,
2013-03-29 17:32:00,22.0,19.0,-100.00,East,86,16.0,22.0,88,0.00,,,0.00,401.799988,,2013-03-30 01:32:00,
2013-03-29 17:42:00,22.0,19.0,-100.00,East,86,16.0,22.0,88,0.00,,,0.00,401.799988,,2013-03-30 01:42:00,
2013-03-29 18:02:00,22.0,19.0,-100.00,East,89,16.0,18.0,89,0.01,,,0.01,349.500000,,2013-03-30 02:02:00,
2013-03-29 18:12:00,22.0,19.0,-100.00,East,89,16.0,18.0,89,0.01,,,0.01,349.500000,,2013-03-30 02:12:00,
2013-03-29 18:22:00,22.0,19.0,-100.00,East,89,16.0,18.0,89,0.01,,,0.01,349.500000,,2013-03-30 02:22:00,
2013-03-29 18:32:00,22.0,19.0,-100.00,East,89,16.0,18.0,89,0.01,,,0.01,349.500000,,2013-03-30 02:32:00,
2013-03-29 18:42:00,22.0,19.0,-100.00,East,89,16.0,18.0,89,0.01,,,0.01,349.500000,,2013-03-30 02:42:00,
2013-03-29 18:43:00,20.0,18.0,-100.00,East,96,15.0,19.0,90,0.01,,,0.02,227.500000,,2013-03-30 02:43:00,
2013-03-29 19:02:00,20.0,18.0,-100.00,East,96,15.0,19.0,90,0.01,,,0.02,227.500000,,2013-03-30 03:02:00,
2013-03-29 19:12:00,20.0,18.0,-100.00,East,96,15.0,19.0,90,0.01,,,0.02,227.500000,,2013-03-30 03:12:00,
2013-03-29 19:22:00,20.0,18.0,-100.00,East,96,15.0,19.0,90,0.01,,,0.02,227.500000,,2013-03-30 03:22:00,
2013-03-29 19:33:00,20.0,18.0,-100.00,East,96,15.0,19.0,90,0.01,,,0.02,227.500000,,2013-03-30 03:33:00,
2013-03-29 20:02:00,20.0,17.0,-100.00,East,101,13.0,19.0,90,0.00,,,0.02,108.099998,,2013-03-30 04:02:00,
2013-03-29 20:12:00,20.0,17.0,-100.00,East,101,13.0,19.0,90,0.00,,,0.02,108.099998,,2013-03-30 04:12:00,
2013-03-29 20:23:00,20.0,17.0,-100.00,East,101,13.0,19.0,90,0.00,,,0.02,108.099998,,2013-03-30 04:23:00,
2013-03-29 20:32:00,20.0,17.0,-100.00,East,101,13.0,19.0,90,0.00,,,0.02,108.099998,,2013-03-30 04:32:00,
2013-03-29 20:42:00,20.0,17.0,-100.00,East,101,13.0,19.0,90,0.00,,,0.02,108.099998,,2013-03-30 04:42:00,
2013-03-29 21:02:00,19.0,17.0,-100.00,East,100,12.0,16.0,91,0.00,,,-99.99,35.200001,,2013-03-30 05:02:00,
2013-03-29 21:12:00,19.0,17.0,-100.00,East,100,12.0,16.0,91,0.00,,,-99.99,35.200001,,2013-03-30 05:12:00,
2013-03-29 21:22:00,19.0,17.0,-100.00,East,100,12.0,16.0,91,0.00,,,-99.99,35.200001,,2013-03-30 05:22:00,
2013-03-29 21:32:00,19.0,17.0,-100.00,East,100,12.0,16.0,91,0.00,,,-99.99,35.200001,,2013-03-30 05:32:00,
2013-03-29 21:42:00,19.0,17.0,-100.00,East,100,12.0,16.0,91,0.00,,,-99.99,35.200001,,2013-03-30 05:42:00,
2013-03-29 22:02:00,18.0,16.0,-100.00,ESE,105,8.0,14.0,91,0.00,,,0.02,1.100000,,2013-03-30 06:02:00,
2013-03-29 22:11:00,18.0,16.0,-100.00,ESE,105,8.0,14.0,91,0.00,,,0.02,1.100000,,2013-03-30 06:11:00,
2013-03-29 22:22:00,18.0,16.0,-100.00,ESE,105,8.0,14.0,91,0.00,,,0.02,1.100000,,2013-03-30 06:22:00,
2013-03-29 22:32:00,18.0,16.0,-100.00,ESE,105,8.0,14.0,91,0.00,,,0.02,1.100000,,2013-03-30 06:32:00,
2013-03-29 22:41:00,18.0,16.0,-100.00,ESE,105,8.0,14.0,91,0.00,,,0.02,1.100000,,2013-03-30 06:41:00,
2013-03-29 23:02:00,19.0,17.0,-100.00,ESE,107,7.0,11.0,91,0.00,,,0.02,0.700000,,2013-03-30 07:02:00,
2013-03-29 23:12:00,19.0,17.0,-100.00,ESE,107,7.0,11.0,91,0.00,,,0.02,0.700000,,2013-03-30 07:12:00,
2013-03-29 23:22:00,19.0,17.0,-100.00,ESE,107,7.0,11.0,91,0.00,,,0.02,0.700000,,2013-03-30 07:22:00,
2013-03-29 23:32:00,19.0,17.0,-100.00,ESE,107,7.0,11.0,91,0.00,,,0.02,0.700000,,2013-03-30 07:32:00,
2013-03-29 23:42:00,19.0,17.0,-100.00,ESE,107,7.0,11.0,91,0.00,,,0.02,0.700000,,2013-03-30 07:42:00,